Time;durP1;ratioP1;P1;durP2;ratioP2;P2;SDS_P1;SDS_P2;PMS_P1;PMS_P2;Temp;Humidity;BMP_temperature;BMP_pressure;BME280_temperature;BME280_humidity;BME280_pressure;Samples;Min_cycle;Max_cycle;Signal;HPM_P1;HPM_P2
2022/04/18 18:31:21;;;;;;;2.67;1.60;;;18.20;87.90;;;;;;5106512;28;20666;-67
2022/04/18 18:33:48;;;;;;;2.78;1.60;;;18.20;87.90;;;;;;5108641;28;20047;-68
2022/04/18 18:36:17;;;;;;;4.28;2.10;;;18.10;88.20;;;;;;5105438;28;20498;-67
2022/04/18 18:38:44;;;;;;;4.38;1.73;;;18.20;88.40;;;;;;5073787;28;20085;-67
2022/04/18 18:41:12;;;;;;;6.50;2.35;;;18.20;88.70;;;;;;5091828;28;20040;-68
2022/04/18 18:43:39;;;;;;;3.17;2.00;;;18.20;88.80;;;;;;5092180;28;20043;-66
2022/04/18 18:46:06;;;;;;;9.93;1.92;;;18.20;89.00;;;;;;5111152;28;20031;-67
2022/04/18 18:48:35;;;;;;;5.28;1.98;;;18.10;89.20;;;;;;5110543;28;20070;-67
2022/04/18 18:53:49;;;;;;;4.53;2.00;;;18.00;88.90;;;;;;5107573;28;20057;-67
2022/04/18 18:56:17;;;;;;;5.07;2.08;;;18.00;89.00;;;;;;5100317;28;20036;-67
2022/04/18 18:58:44;;;;;;;5.47;2.10;;;17.90;89.00;;;;;;5067421;28;20705;-67
2022/04/18 19:01:11;;;;;;;4.75;2.03;;;17.90;89.20;;;;;;5105557;28;20076;-67
2022/04/18 19:03:38;;;;;;;3.15;1.80;;;17.90;89.10;;;;;;5123910;28;20035;-67
2022/04/18 19:06:09;;;;;;;9.70;2.00;;;17.80;89.30;;;;;;5107578;28;20055;-67
2022/04/18 19:08:36;;;;;;;8.32;2.00;;;17.80;89.50;;;;;;5110869;28;20040;-66
2022/04/18 19:11:04;;;;;;;4.53;2.00;;;17.80;89.60;;;;;;5109072;28;20047;-67
2022/04/18 19:13:31;;;;;;;2.95;1.80;;;17.80;89.80;;;;;;5100085;28;20096;-67
2022/04/18 19:15:58;;;;;;;3.42;1.65;;;17.80;89.80;;;;;;5103017;28;20077;-67
2022/04/18 19:26:40;;;;;;;5.07;1.90;;;17.90;90.10;;;;;;5102241;28;20058;-67
2022/04/18 19:29:11;;;;;;;4.07;1.90;;;17.80;90.20;;;;;;5090111;28;20764;-67
2022/04/18 19:31:40;;;;;;;2.70;1.83;;;17.80;90.20;;;;;;5094937;28;20451;-67
2022/04/18 19:34:08;;;;;;;7.95;2.53;;;17.80;90.40;;;;;;5111007;28;20031;-67
2022/04/18 19:36:35;;;;;;;6.38;2.28;;;17.80;90.60;;;;;;5092711;28;20116;-67
2022/04/18 19:39:02;;;;;;;8.48;3.03;;;17.80;90.60;;;;;;5110935;28;20030;-67
2022/04/18 19:41:30;;;;;;;26.75;3.55;;;17.70;90.50;;;;;;5110559;28;20039;-67
2022/04/18 19:43:57;;;;;;;25.80;3.35;;;17.70;90.50;;;;;;5110678;28;20076;-67
2022/04/18 19:46:25;;;;;;;18.52;2.55;;;17.70;90.60;;;;;;5110624;28;20115;-67
2022/04/18 19:48:53;;;;;;;10.52;2.55;;;17.70;90.60;;;;;;5110589;28;20023;-67
2022/04/18 19:51:21;;;;;;;12.85;2.67;;;17.70;90.60;;;;;;5110743;28;20054;-67
2022/04/18 19:53:52;;;;;;;8.68;2.60;;;17.70;90.50;;;;;;5110996;28;20104;-67
2022/04/18 19:56:19;;;;;;;15.25;3.00;;;17.70;90.50;;;;;;5110587;28;20489;-67
2022/04/18 19:58:47;;;;;;;11.55;2.95;;;17.70;90.50;;;;;;5092005;28;20473;-67
2022/04/18 20:01:18;;;;;;;6.15;2.70;;;17.70;90.20;;;;;;5096107;28;20505;-67
2022/04/18 20:03:51;;;;;;;9.77;2.70;;;17.70;90.30;;;;;;5096729;28;20052;-67
2022/04/18 20:06:18;;;;;;;5.43;2.53;;;17.70;90.30;;;;;;5114399;28;20038;-67
2022/04/18 20:08:46;;;;;;;11.15;2.30;;;17.70;90.30;;;;;;5114146;28;20554;-67
2022/04/18 20:11:13;;;;;;;12.55;2.85;;;17.70;90.00;;;;;;5113875;28;20130;-67
2022/04/18 20:13:40;;;;;;;12.68;2.67;;;17.70;90.30;;;;;;5078555;28;20031;-67
2022/04/18 20:16:09;;;;;;;6.70;2.60;;;17.70;90.20;;;;;;5113933;28;20369;-67
2022/04/18 20:18:36;;;;;;;7.38;2.50;;;17.70;90.10;;;;;;5113992;28;20107;-67
2022/04/18 20:21:08;;;;;;;5.20;2.70;;;17.70;90.10;;;;;;5114184;28;20513;-67
2022/04/18 20:23:36;;;;;;;7.28;2.58;;;17.70;90.10;;;;;;5096808;28;20027;-67
2022/04/18 20:26:04;;;;;;;8.52;2.80;;;17.70;90.00;;;;;;5113637;28;20490;-67
2022/04/18 20:28:32;;;;;;;6.90;2.30;;;17.70;90.10;;;;;;5113791;28;20086;-67
2022/04/18 20:31:00;;;;;;;9.20;2.60;;;17.70;90.10;;;;;;5113429;28;20077;-67
2022/04/18 20:33:27;;;;;;;5.47;2.78;;;17.70;90.10;;;;;;5095520;28;20382;-67
2022/04/18 20:35:54;;;;;;;7.57;2.80;;;17.70;90.00;;;;;;5095794;28;20028;-67
2022/04/18 20:38:21;;;;;;;6.53;2.42;;;17.70;90.10;;;;;;5113701;28;20028;-67
2022/04/18 20:40:48;;;;;;;4.97;2.45;;;17.70;89.90;;;;;;5095213;28;20392;-67
2022/04/18 20:43:16;;;;;;;4.72;2.80;;;17.70;90.00;;;;;;5095593;28;20466;-67
2022/04/18 20:45:44;;;;;;;8.70;2.60;;;17.70;90.10;;;;;;5113429;28;20469;-67
2022/04/18 20:50:57;;;;;;;4.75;2.55;;;17.70;90.20;;;;;;5097821;28;20054;-67
2022/04/18 20:58:55;;;;;;;10.02;2.58;;;17.80;90.50;;;;;;5113146;28;20050;-67
2022/04/18 21:01:22;;;;;;;7.57;2.80;;;17.80;90.40;;;;;;5094967;28;20027;-67
2022/04/18 21:03:50;;;;;;;4.35;2.13;;;17.80;90.30;;;;;;5112761;28;20055;-67
2022/04/18 21:06:19;;;;;;;5.60;2.55;;;17.80;90.40;;;;;;5094950;28;20043;-67
2022/04/18 21:08:46;;;;;;;4.70;2.00;;;17.90;90.40;;;;;;5112519;28;20039;-67
2022/04/18 21:11:13;;;;;;;6.70;2.38;;;17.90;90.70;;;;;;5093833;28;20036;-68
2022/04/18 21:13:42;;;;;;;7.03;2.38;;;18.00;90.90;;;;;;5112839;28;20505;-68
2022/04/18 21:16:09;;;;;;;8.38;2.53;;;18.00;90.90;;;;;;5077723;28;20040;-67
2022/04/18 21:18:36;;;;;;;3.88;1.92;;;18.00;90.80;;;;;;5112875;28;20027;-68
2022/04/18 21:21:03;;;;;;;5.10;2.53;;;18.00;90.90;;;;;;5112131;28;20043;-68
2022/04/18 21:23:30;;;;;;;4.63;2.42;;;18.10;90.90;;;;;;5094129;28;20031;-68
2022/04/18 21:25:58;;;;;;;5.80;2.20;;;18.10;90.50;;;;;;5112182;28;20112;-67
2022/04/18 21:28:25;;;;;;;4.82;2.60;;;18.20;90.50;;;;;;5112228;28;20473;-68
2022/04/18 21:30:52;;;;;;;4.47;2.22;;;18.20;90.50;;;;;;5111866;28;20046;-68
2022/04/18 21:33:19;;;;;;;5.63;2.30;;;18.20;90.50;;;;;;5112185;28;20093;-68
2022/04/18 21:35:47;;;;;;;5.53;2.53;;;18.30;90.50;;;;;;5112281;28;20138;-67
2022/04/18 21:38:14;;;;;;;9.60;2.65;;;18.30;90.50;;;;;;5112218;28;20035;-67
2022/04/18 21:40:43;;;;;;;6.07;2.20;;;18.40;90.60;;;;;;5112434;28;20032;-67
2022/04/18 21:43:11;;;;;;;4.50;2.15;;;18.40;90.40;;;;;;5094257;28;20034;-67
2022/04/18 21:45:39;;;;;;;5.32;2.08;;;18.40;90.30;;;;;;5093790;28;20054;-67
2022/04/18 21:48:06;;;;;;;3.17;2.00;;;18.50;90.00;;;;;;5093815;28;20500;-68
2022/04/18 21:50:34;;;;;;;2.60;1.83;;;18.50;89.80;;;;;;5112095;28;20408;-67
2022/04/18 21:53:04;;;;;;;3.50;2.00;;;18.50;89.80;;;;;;5111894;28;20027;-67
2022/04/18 21:55:43;;;;;;;3.13;1.67;;;18.60;89.70;;;;;;5112110;27;20450;-68
2022/04/18 21:58:10;;;;;;;4.38;2.17;;;18.60;89.60;;;;;;5114243;27;20073;-68
2022/04/18 22:00:41;;;;;;;4.45;2.22;;;18.60;89.40;;;;;;5131782;27;20118;-70
2022/04/18 22:03:09;;;;;;;3.08;2.03;;;18.60;89.60;;;;;;5132370;27;20454;-70
2022/04/18 22:05:36;;;;;;;4.55;2.25;;;18.70;89.50;;;;;;5132163;27;20051;-70
2022/04/18 22:08:06;;;;;;;3.95;2.10;;;18.70;89.50;;;;;;5132046;27;20106;-70
2022/04/18 22:10:33;;;;;;;3.70;2.10;;;18.70;89.60;;;;;;5114290;27;20119;-70
2022/04/18 22:13:00;;;;;;;5.28;2.22;;;18.80;89.50;;;;;;5114053;27;20389;-71
2022/04/18 22:15:28;;;;;;;4.20;2.03;;;18.70;89.60;;;;;;5129326;27;20038;-68
2022/04/18 22:17:59;;;;;;;8.73;1.80;;;18.80;89.60;;;;;;5131915;27;20110;-75
2022/04/18 22:25:57;;;;;;;4.05;1.90;;;18.90;89.50;;;;;;5119505;27;20440;-74
2022/04/18 22:28:24;;;;;;;7.47;2.13;;;19.00;89.40;;;;;;5107501;27;20132;-74
2022/04/18 22:30:51;;;;;;;8.25;1.83;;;19.00;89.30;;;;;;5128251;27;20042;-74
2022/04/18 22:33:19;;;;;;;6.15;1.80;;;19.00;89.00;;;;;;5130777;27;20088;-74
2022/04/18 22:35:46;;;;;;;3.85;2.00;;;19.10;88.80;;;;;;5131559;27;20031;-74
2022/04/18 22:38:13;;;;;;;7.28;2.22;;;19.10;88.60;;;;;;5130206;27;20087;-74
2022/04/18 22:40:40;;;;;;;8.45;1.95;;;19.20;88.50;;;;;;5131775;27;20031;-74
2022/04/18 22:43:08;;;;;;;4.70;2.10;;;19.20;88.60;;;;;;5130412;27;20031;-74
2022/04/18 22:45:35;;;;;;;3.85;2.05;;;19.30;88.60;;;;;;5131295;27;20043;-74
2022/04/18 22:48:03;;;;;;;4.65;2.13;;;19.20;88.60;;;;;;5131385;27;20378;-74
2022/04/18 22:50:30;;;;;;;5.00;2.00;;;19.20;88.60;;;;;;5131234;27;20070;-74
2022/04/18 22:52:57;;;;;;;7.32;2.00;;;19.30;88.50;;;;;;5131298;28;20046;-74
2022/04/18 22:55:24;;;;;;;4.07;2.00;;;19.30;88.40;;;;;;5130780;28;20074;-75
2022/04/18 22:57:51;;;;;;;7.65;2.40;;;19.40;88.00;;;;;;5131411;28;20071;-75
2022/04/18 23:00:19;;;;;;;9.77;2.22;;;19.50;87.70;;;;;;5131273;28;20042;-74
2022/04/18 23:02:50;;;;;;;10.23;2.17;;;19.60;87.60;;;;;;5131532;28;20031;-74
2022/04/18 23:08:04;;;;;;;4.60;1.95;;;19.70;86.60;;;;;;5120702;28;20396;-74
2022/04/18 23:10:31;;;;;;;6.90;1.80;;;19.80;86.60;;;;;;5129809;28;20161;-74
2022/04/18 23:12:58;;;;;;;4.47;1.88;;;19.90;86.80;;;;;;5131383;27;20027;-74
2022/04/18 23:15:25;;;;;;;6.30;2.00;;;19.90;86.40;;;;;;5131152;27;20080;-74
2022/04/18 23:17:53;;;;;;;5.35;1.80;;;20.00;86.50;;;;;;5130152;28;20117;-74
2022/04/18 23:20:21;;;;;;;8.90;1.77;;;20.10;86.20;;;;;;5131387;27;20027;-74
2022/04/18 23:22:49;;;;;;;6.50;1.65;;;20.10;86.00;;;;;;5130064;28;20028;-75
2022/04/18 23:25:16;;;;;;;5.18;1.92;;;20.20;85.20;;;;;;5130247;28;20062;-75
2022/04/18 23:27:43;;;;;;;3.20;1.60;;;20.30;84.90;;;;;;5130237;28;20389;-74
2022/04/18 23:30:11;;;;;;;6.15;1.80;;;20.30;84.30;;;;;;5131131;27;20023;-74
2022/04/18 23:32:39;;;;;;;6.68;1.35;;;20.30;84.20;;;;;;5131181;28;20062;-74
2022/04/18 23:35:14;;;;;;;5.18;1.63;;;20.50;83.30;;;;;;5131947;27;20038;-75
2022/04/18 23:37:44;;;;;;;3.00;1.30;;;20.50;83.60;;;;;;5134914;27;20108;-74
2022/04/18 23:42:56;;;;;;;5.55;1.20;;;20.70;82.70;;;;;;5119280;27;19910;-75
2022/04/18 23:45:25;;;;;;;3.88;1.27;;;20.70;82.70;;;;;;5134918;27;20073;-74
2022/04/18 23:47:52;;;;;;;5.97;1.33;;;20.80;82.70;;;;;;5117259;27;20493;-75
2022/04/18 23:53:04;;;;;;;2.72;1.20;;;20.90;81.30;;;;;;5134808;27;20154;-74
2022/04/18 23:55:32;;;;;;;1.90;1.15;;;21.00;80.50;;;;;;5133490;27;20126;-74
2022/04/18 23:57:59;;;;;;;5.72;1.60;;;21.00;80.60;;;;;;5133702;27;20501;-74
